| time (UTC) | temp C | wind direction | speed KPH | gust KPH | rain 1hr cm | rain 24hr cm | rain mn cm | humidity % | barometer mb |
| 20260502152206 | 6 | 242 | 0.0 | 1.6 | 0.00 | 0.00 | 0.00 | 57 | 1015.1 |
| 20260502151703 | 6 | 257 | 4.8 | 12.9 | 0.00 | 0.00 | 0.00 | 55 | 1015.2 |
| 20260502151200 | 6 | 242 | 3.2 | 11.3 | 0.00 | 0.00 | 0.00 | 56 | 1015.1 |
| 20260502150657 | 6 | 95 | 1.6 | 3.2 | 0.00 | 0.00 | 0.00 | 56 | 1014.9 |
| 20260502150153 | 6 | 125 | 4.8 | 11.3 | 0.00 | 0.00 | 0.00 | 55 | 1015.2 |
| 20260502140117 | 5 | 150 | 1.6 | 4.8 | 0.00 | 0.00 | 0.00 | 66 | 1014.9 |
| 20260502130542 | 3 | 320 | 1.6 | 3.2 | 0.00 | 0.00 | 0.00 | 79 | 1014.8 |
| 20260502123525 | 3 | 84 | 1.6 | 1.6 | 0.00 | 0.00 | 0.00 | 85 | 1014.7 |
| 20260502123022 | 2 | 164 | 1.6 | 3.2 | 0.00 | 0.00 | 0.00 | 86 | 1014.5 |
| 20260502122519 | 2 | 107 | 0.0 | 0.0 | 0.00 | 0.00 | 0.00 | 88 | 1014.7 |
| 20260502122016 | 2 | 244 | 4.8 | 4.8 | 0.00 | 0.00 | 0.00 | 88 | 1014.6 |
| 20260502121513 | 2 | 261 | 0.0 | 6.4 | 0.00 | 0.00 | 0.00 | 88 | 1014.8 |
| 20260502121011 | 2 | 204 | 0.0 | 3.2 | 0.00 | 0.00 | 0.00 | 89 | 1014.6 |
| 20260502120507 | 2 | 241 | 3.2 | 4.8 | 0.00 | 0.00 | 0.00 | 89 | 1014.6 |
| 20260502115501 | 1 | 155 | 0.0 | 0.0 | 0.00 | 0.00 | 0.00 | 95 | 1014.6 |
| 20260502114957 | 1 | 155 | 0.0 | 0.0 | 0.00 | 0.00 | 0.00 | 96 | 1014.6 |
| 20260502114454 | 1 | 155 | 0.0 | 0.0 | 0.00 | 0.00 | 0.00 | 96 | 1014.6 |
| 20260502113951 | 1 | 155 | 0.0 | 0.0 | 0.00 | 0.00 | 0.00 | 96 | 1014.3 |
| 20260502113449 | 1 | 155 | 0.0 | 0.0 | 0.00 | 0.00 | 0.00 | 96 | 1014.3 |
| 20260502112947 | 1 | 155 | 0.0 | 0.0 | 0.00 | 0.00 | 0.00 | 96 | 1014.5 |
| 20260502112444 | 1 | 155 | 0.0 | 0.0 | 0.00 | 0.00 | 0.00 | 97 | 1014.1 |
| 20260502111942 | 1 | 155 | 0.0 | 0.0 | 0.00 | 0.00 | 0.00 | 97 | 1014.1 |
| 20260502111439 | 1 | 155 | 0.0 | 0.0 | 0.00 | 0.00 | 0.00 | 97 | 1014.3 |
| 20260502110936 | 0 | 155 | 0.0 | 0.0 | 0.00 | 0.00 | 0.00 | 97 | 1014.5 |
| 20260502110434 | 0 | 155 | 0.0 | 0.0 | 0.00 | 0.00 | 0.00 | 97 | 1014.3 |
| 20260502105931 | 0 | 155 | 0.0 | 0.0 | 0.00 | 0.00 | 0.00 | 96 | 1014.2 |
| 20260502105428 | 0 | 155 | 0.0 | 0.0 | 0.00 | 0.00 | 0.00 | 96 | 1014.3 |
| 20260502104926 | 0 | 155 | 0.0 | 0.0 | 0.00 | 0.00 | 0.00 | 96 | 1014.3 |
| 20260502104423 | 0 | 155 | 0.0 | 0.0 | 0.00 | 0.00 | 0.00 | 96 | 1014.3 |
| 20260502103920 | 0 | 155 | 0.0 | 0.0 | 0.00 | 0.00 | 0.00 | 96 | 1014.8 |
| 20260502103418 | 0 | 155 | 0.0 | 0.0 | 0.00 | 0.00 | 0.00 | 96 | 1014.5 |
| 20260502102915 | 0 | 155 | 0.0 | 0.0 | 0.00 | 0.00 | 0.00 | 96 | 1014.5 |
| 20260502102411 | 0 | 155 | 0.0 | 0.0 | 0.00 | 0.00 | 0.00 | 96 | 1014.5 |
| 20260502101909 | 0 | 155 | 0.0 | 0.0 | 0.00 | 0.00 | 0.00 | 96 | 1014.2 |
| 20260502101407 | 0 | 155 | 0.0 | 0.0 | 0.00 | 0.00 | 0.00 | 96 | 1014.5 |
| 20260502100905 | 0 | 155 | 0.0 | 0.0 | 0.00 | 0.00 | 0.00 | 96 | 1014.7 |
| 20260502100404 | 0 | 155 | 0.0 | 0.0 | 0.00 | 0.00 | 0.00 | 96 | 1014.5 |
| 20260502091337 | 1 | 155 | 0.0 | 0.0 | 0.00 | 0.00 | 0.00 | 95 | 1014.8 |
| 20260502090835 | 1 | 155 | 0.0 | 1.6 | 0.00 | 0.00 | 0.00 | 94 | 1014.7 |
| 20260502090332 | 1 | 155 | 0.0 | 1.6 | 0.00 | 0.00 | 0.00 | 94 | 1014.9 |
| 20260502071227 | 2 | 140 | 0.0 | 0.0 | 0.00 | 0.00 | 0.00 | 89 | 1014.9 |
| 20260502070725 | 2 | 140 | 0.0 | 0.0 | 0.00 | 0.00 | 0.00 | 89 | 1014.6 |
| 20260502070222 | 2 | 142 | 3.2 | 3.2 | 0.00 | 0.00 | 0.00 | 88 | 1014.7 |
| 20260502065721 | 2 | 130 | 0.0 | 0.0 | 0.00 | 0.00 | 0.00 | 88 | 1014.5 |
| 20260502065218 | 2 | 135 | 0.0 | 0.0 | 0.00 | 0.00 | 0.00 | 88 | 1014.5 |
| 20260502064717 | 2 | 152 | 0.0 | 0.0 | 0.00 | 0.00 | 0.00 | 87 | 1014.5 |
| 20260502064214 | 2 | 125 | 0.0 | 1.6 | 0.00 | 0.00 | 0.00 | 86 | 1014.5 |
| 20260502063711 | 3 | 169 | 3.2 | 3.2 | 0.00 | 0.00 | 0.00 | 85 | 1014.7 |
| 20260502063209 | 3 | 159 | 1.6 | 3.2 | 0.00 | 0.00 | 0.00 | 85 | 1014.8 |
| 20260502062706 | 3 | 149 | 1.6 | 1.6 | 0.00 | 0.00 | 0.00 | 85 | 1014.8 |
| 20260502062203 | 3 | 141 | 0.0 | 3.2 | 0.00 | 0.00 | 0.00 | 83 | 1015.0 |
| 20260502061702 | 3 | 142 | 0.0 | 3.2 | 0.00 | 0.00 | 0.00 | 83 | 1015.0 |
| 20260502061159 | 3 | 148 | 0.0 | 0.0 | 0.00 | 0.00 | 0.00 | 83 | 1015.1 |
| 20260502060654 | 3 | 146 | 1.6 | 1.6 | 0.00 | 0.00 | 0.00 | 83 | 1015.1 |
| 20260502060151 | 3 | 169 | 0.0 | 0.0 | 0.00 | 0.00 | 0.00 | 83 | 1015.0 |
| 20260502055648 | 3 | 169 | 0.0 | 1.6 | 0.00 | 0.00 | 0.00 | 82 | 1015.0 |
| 20260502055146 | 3 | 152 | 1.6 | 1.6 | 0.00 | 0.00 | 0.00 | 81 | 1015.1 |
| 20260502054645 | 3 | 153 | 0.0 | 0.0 | 0.00 | 0.00 | 0.00 | 83 | 1015.1 |
| 20260502054142 | 3 | 138 | 0.0 | 0.0 | 0.00 | 0.00 | 0.00 | 81 | 1015.0 |
| 20260502053639 | 3 | 162 | 0.0 | 1.6 | 0.00 | 0.00 | 0.00 | 80 | 1015.0 |
| 20260502053136 | 4 | 143 | 0.0 | 3.2 | 0.00 | 0.00 | 0.00 | 80 | 1015.2 |
| 20260502052635 | 4 | 159 | 0.0 | 1.6 | 0.00 | 0.00 | 0.00 | 80 | 1015.4 |
| 20260502052132 | 4 | 162 | 0.0 | 1.6 | 0.00 | 0.00 | 0.00 | 80 | 1015.3 |
| 20260502051630 | 4 | 269 | 0.0 | 0.0 | 0.00 | 0.00 | 0.00 | 79 | 1015.1 |
| 20260502051128 | 4 | 164 | 0.0 | 0.0 | 0.00 | 0.00 | 0.00 | 81 | 1015.2 |
| 20260502050624 | 4 | 148 | 0.0 | 1.6 | 0.00 | 0.00 | 0.00 | 81 | 1015.5 |
| 20260502050121 | 5 | 217 | 0.0 | 1.6 | 0.00 | 0.00 | 0.00 | 82 | 1015.2 |
| 20260502045617 | 5 | 83 | 0.0 | 1.6 | 0.00 | 0.00 | 0.00 | 83 | 1015.5 |
| 20260502045115 | 5 | 82 | 1.6 | 3.2 | 0.00 | 0.00 | 0.00 | 83 | 1015.4 |
| 20260502044611 | 5 | 139 | 3.2 | 4.8 | 0.00 | 0.00 | 0.00 | 84 | 1015.4 |
| 20260502044108 | 5 | 155 | 1.6 | 3.2 | 0.00 | 0.00 | 0.00 | 84 | 1015.5 |
| 20260502043606 | 5 | 119 | 1.6 | 3.2 | 0.00 | 0.00 | 0.00 | 84 | 1015.4 |
| 20260502043057 | 5 | 151 | 0.0 | 3.2 | 0.00 | 0.00 | 0.00 | 83 | 1015.1 |
| 20260502042556 | 5 | 96 | 0.0 | 1.6 | 0.00 | 0.00 | 0.00 | 81 | 1015.4 |
| 20260502042054 | 5 | 181 | 0.0 | 0.0 | 0.00 | 0.00 | 0.00 | 80 | 1015.3 |
| 20260502041552 | 5 | 192 | 0.0 | 0.0 | 0.00 | 0.00 | 0.00 | 80 | 1015.4 |
| 20260502041049 | 5 | 165 | 1.6 | 1.6 | 0.00 | 0.00 | 0.00 | 79 | 1015.4 |
| 20260502040545 | 5 | 178 | 1.6 | 1.6 | 0.00 | 0.00 | 0.00 | 79 | 1015.4 |
| 20260502040043 | 5 | 179 | 0.0 | 0.0 | 0.00 | 0.00 | 0.00 | 79 | 1015.5 |
| 20260502035538 | 5 | 174 | 1.6 | 9.7 | 0.00 | 0.00 | 0.00 | 79 | 1015.3 |
| 20260502035036 | 6 | 139 | 3.2 | 4.8 | 0.00 | 0.00 | 0.00 | 80 | 1015.4 |
| 20260502034534 | 6 | 154 | 1.6 | 3.2 | 0.00 | 0.00 | 0.00 | 79 | 1015.5 |
| 20260502034032 | 6 | 189 | 3.2 | 6.4 | 0.00 | 0.00 | 0.00 | 79 | 1015.3 |
| 20260502033530 | 6 | 98 | 0.0 | 4.8 | 0.00 | 0.00 | 0.00 | 80 | 1015.3 |
| 20260502033027 | 6 | 205 | 0.0 | 1.6 | 0.00 | 0.00 | 0.00 | 82 | 1015.5 |
| 20260502032522 | 6 | 143 | 3.2 | 6.4 | 0.00 | 0.00 | 0.00 | 82 | 1015.6 |
| 20260502032020 | 6 | 134 | 3.2 | 9.7 | 0.00 | 0.00 | 0.00 | 82 | 1015.2 |
| 20260502031518 | 6 | 335 | 0.0 | 1.6 | 0.00 | 0.00 | 0.00 | 83 | 1015.5 |
| 20260502031015 | 6 | 191 | 1.6 | 4.8 | 0.00 | 0.00 | 0.00 | 82 | 1015.3 |
| 20260502030514 | 6 | 34 | 0.0 | 1.6 | 0.00 | 0.00 | 0.00 | 82 | 1015.1 |
| 20260502030012 | 6 | 139 | 0.0 | 1.6 | 0.00 | 0.00 | 0.00 | 82 | 1015.1 |
| 20260502025509 | 6 | 135 | 0.0 | 1.6 | 0.00 | 0.00 | 0.00 | 81 | 1015.3 |
| 20260502025007 | 6 | 176 | 0.0 | 3.2 | 0.00 | 0.00 | 0.00 | 81 | 1015.0 |
| 20260502024504 | 6 | 219 | 0.0 | 0.0 | 0.00 | 0.00 | 0.00 | 80 | 1015.1 |
| 20260502024003 | 6 | 158 | 1.6 | 1.6 | 0.00 | 0.00 | 0.00 | 79 | 1015.2 |
| 20260502023459 | 6 | 166 | 0.0 | 1.6 | 0.00 | 0.00 | 0.00 | 79 | 1015.4 |
| 20260502022957 | 6 | 188 | 0.0 | 0.0 | 0.00 | 0.00 | 0.00 | 79 | 1015.3 |
| 20260502022453 | 6 | 131 | 1.6 | 1.6 | 0.00 | 0.00 | 0.00 | 78 | 1015.2 |
| 20260502021950 | 6 | 152 | 1.6 | 1.6 | 0.00 | 0.00 | 0.00 | 78 | 1015.0 |
| 20260502021448 | 6 | 90 | 0.0 | 3.2 | 0.00 | 0.00 | 0.00 | 78 | 1015.0 |
| 20260502020944 | 6 | 72 | 1.6 | 3.2 | 0.00 | 0.00 | 0.00 | 78 | 1014.8 |
| 20260502020442 | 6 | 231 | 1.6 | 4.8 | 0.00 | 0.00 | 0.00 | 77 | 1014.9 |
| 20260502015938 | 6 | 132 | 3.2 | 3.2 | 0.00 | 0.00 | 0.00 | 76 | 1014.6 |
| 20260502015436 | 6 | 187 | 0.0 | 3.2 | 0.00 | 0.00 | 0.00 | 76 | 1014.9 |
| 20260502014933 | 6 | 159 | 3.2 | 4.8 | 0.00 | 0.00 | 0.00 | 75 | 1014.6 |
| 20260502014430 | 7 | 47 | 1.6 | 1.6 | 0.00 | 0.00 | 0.00 | 76 | 1014.6 |
| 20260502013926 | 7 | 143 | 0.0 | 3.2 | 0.00 | 0.00 | 0.00 | 75 | 1014.6 |
| 20260502013422 | 7 | 95 | 1.6 | 3.2 | 0.00 | 0.00 | 0.00 | 75 | 1014.7 |
| 20260502012918 | 7 | 178 | 0.0 | 3.2 | 0.00 | 0.00 | 0.00 | 75 | 1014.6 |
| 20260502012416 | 7 | 111 | 0.0 | 0.0 | 0.00 | 0.00 | 0.00 | 75 | 1014.6 |
| 20260502011908 | 7 | 207 | 1.6 | 3.2 | 0.00 | 0.00 | 0.00 | 75 | 1014.7 |
| 20260502011404 | 7 | 219 | 1.6 | 3.2 | 0.00 | 0.00 | 0.00 | 75 | 1014.8 |
| 20260502010902 | 7 | 190 | 3.2 | 6.4 | 0.00 | 0.00 | 0.00 | 74 | 1014.6 |
| 20260502010358 | 7 | 121 | 1.6 | 9.7 | 0.00 | 0.00 | 0.00 | 75 | 1014.6 |
| 20260502005855 | 7 | 121 | 4.8 | 9.7 | 0.00 | 0.00 | 0.00 | 76 | 1014.3 |
| 20260502005353 | 7 | 201 | 0.0 | 11.3 | 0.00 | 0.00 | 0.00 | 77 | 1014.2 |
| 20260502004850 | 7 | 31 | 0.0 | 4.8 | 0.00 | 0.00 | 0.00 | 78 | 1014.2 |
| 20260502004346 | 7 | 217 | 3.2 | 11.3 | 0.00 | 0.00 | 0.00 | 78 | 1014.1 |
| 20260502003844 | 7 | 259 | 0.0 | 6.4 | 0.00 | 0.00 | 0.00 | 79 | 1013.8 |
| 20260502003340 | 8 | 205 | 1.6 | 3.2 | 0.00 | 0.00 | 0.00 | 79 | 1013.8 |
| 20260502002837 | 8 | 211 | 0.0 | 3.2 | 0.00 | 0.00 | 0.00 | 79 | 1013.7 |
| 20260502002334 | 8 | 177 | 3.2 | 6.4 | 0.00 | 0.00 | 0.00 | 79 | 1013.6 |
| 20260502001831 | 8 | 186 | 0.0 | 1.6 | 0.00 | 0.00 | 0.00 | 79 | 1013.6 |
| 20260502001329 | 8 | 231 | 6.4 | 11.3 | 0.00 | 0.00 | 0.00 | 79 | 1013.4 |
| 20260502000826 | 8 | 164 | 3.2 | 4.8 | 0.00 | 0.00 | 0.00 | 79 | 1012.9 |
| 20260502000325 | 8 | 134 | 0.0 | 3.2 | 0.00 | 0.00 | 0.00 | 79 | 1013.0 |
| 20260501235820 | 8 | 162 | 0.0 | 1.6 | 0.00 | 0.00 | 0.00 | 79 | 1013.2 |
| 20260501235316 | 8 | 284 | 6.4 | 9.7 | 0.00 | 0.00 | 0.00 | 78 | 1013.0 |
| 20260501234811 | 8 | 206 | 1.6 | 6.4 | 0.00 | 0.00 | 0.00 | 77 | 1012.7 |
| 20260501234309 | 8 | 153 | 1.6 | 4.8 | 0.00 | 0.00 | 0.00 | 76 | 1012.8 |
| 20260501233807 | 8 | 87 | 0.0 | 4.8 | 0.00 | 0.00 | 0.00 | 76 | 1012.4 |
| 20260501233304 | 9 | 118 | 3.2 | 11.3 | 0.00 | 0.00 | 0.00 | 74 | 1012.6 |
| 20260501232759 | 9 | 190 | 1.6 | 4.8 | 0.00 | 0.00 | 0.00 | 74 | 1012.3 |
| 20260501232257 | 9 | 216 | 1.6 | 6.4 | 0.00 | 0.00 | 0.00 | 72 | 1012.6 |
| 20260501231755 | 10 | 182 | 0.0 | 4.8 | 0.00 | 0.00 | 0.00 | 71 | 1012.5 |
| 20260501231253 | 10 | 174 | 6.4 | 14.5 | 0.00 | 0.00 | 0.00 | 71 | 1012.5 |
| 20260501230751 | 10 | 149 | 3.2 | 11.3 | 0.00 | 0.00 | 0.00 | 70 | 1012.5 |
| 20260501230249 | 10 | 131 | 3.2 | 6.4 | 0.00 | 0.00 | 0.00 | 69 | 1012.4 |
| 20260501225746 | 10 | 199 | 1.6 | 3.2 | 0.00 | 0.00 | 0.00 | 67 | 1012.1 |
| 20260501225243 | 11 | 202 | 6.4 | 11.3 | 0.00 | 0.00 | 0.00 | 66 | 1012.3 |
| 20260501224739 | 11 | 165 | 1.6 | 6.4 | 0.00 | 0.00 | 0.00 | 63 | 1012.2 |
| 20260501224237 | 11 | 134 | 3.2 | 9.7 | 0.00 | 0.00 | 0.00 | 61 | 1012.3 |
| 20260501223733 | 11 | 267 | 8.0 | 17.7 | 0.00 | 0.00 | 0.00 | 59 | 1012.1 |
| 20260501223230 | 11 | 267 | 1.6 | 4.8 | 0.00 | 0.00 | 0.00 | 58 | 1012.0 |
| 20260501222726 | 11 | 195 | 4.8 | 12.9 | 0.00 | 0.00 | 0.00 | 57 | 1011.9 |
| 20260501222223 | 12 | 145 | 9.7 | 12.9 | 0.00 | 0.00 | 0.00 | 54 | 1011.7 |
| 20260501221720 | 12 | 166 | 6.4 | 9.7 | 0.00 | 0.00 | 0.00 | 53 | 1011.7 |
| 20260501221217 | 12 | 200 | 4.8 | 9.7 | 0.00 | 0.00 | 0.00 | 52 | 1012.0 |
| 20260501220715 | 12 | 127 | 6.4 | 9.7 | 0.00 | 0.00 | 0.00 | 51 | 1011.6 |
| 20260501220212 | 12 | 186 | 1.6 | 12.9 | 0.00 | 0.00 | 0.00 | 50 | 1011.5 |
| 20260501215709 | 12 | 205 | 4.8 | 11.3 | 0.00 | 0.00 | 0.00 | 49 | 1011.6 |
| 20260501215204 | 12 | 174 | 4.8 | 4.8 | 0.00 | 0.00 | 0.00 | 48 | 1011.4 |
| 20260501214659 | 13 | 279 | 3.2 | 6.4 | 0.00 | 0.00 | 0.00 | 48 | 1011.2 |
| 20260501214155 | 13 | 176 | 3.2 | 6.4 | 0.00 | 0.00 | 0.00 | 46 | 1011.5 |
| 20260501213652 | 13 | 228 | 4.8 | 14.5 | 0.00 | 0.00 | 0.00 | 44 | 1011.4 |
| 20260501213148 | 13 | 221 | 6.4 | 14.5 | 0.00 | 0.00 | 0.00 | 43 | 1011.3 |
| 20260501212645 | 13 | 225 | 4.8 | 6.4 | 0.00 | 0.00 | 0.00 | 39 | 1011.4 |
| 20260501212141 | 14 | 173 | 12.9 | 17.7 | 0.00 | 0.00 | 0.00 | 39 | 1011.2 |
| 20260501211638 | 14 | 185 | 9.7 | 20.9 | 0.00 | 0.00 | 0.00 | 37 | 1011.2 |
| 20260501211136 | 15 | 195 | 8.0 | 24.1 | 0.00 | 0.00 | 0.00 | 37 | 1011.2 |
| 20260501210632 | 15 | 144 | 6.4 | 11.3 | 0.00 | 0.00 | 0.00 | 35 | 1011.1 |
| 20260501210129 | 15 | 220 | 8.0 | 11.3 | 0.00 | 0.00 | 0.00 | 34 | 1011.1 |
| 20260501205625 | 15 | 183 | 4.8 | 16.1 | 0.00 | 0.00 | 0.00 | 33 | 1010.9 |
| 20260501205123 | 15 | 157 | 9.7 | 11.3 | 0.00 | 0.00 | 0.00 | 33 | 1010.9 |
| 20260501204619 | 15 | 155 | 3.2 | 12.9 | 0.00 | 0.00 | 0.00 | 32 | 1010.9 |
| 20260501204115 | 15 | 213 | 4.8 | 17.7 | 0.00 | 0.00 | 0.00 | 31 | 1010.9 |
| 20260501203612 | 16 | 205 | 8.0 | 11.3 | 0.00 | 0.00 | 0.00 | 31 | 1010.6 |
| 20260501203109 | 16 | 174 | 8.0 | 16.1 | 0.00 | 0.00 | 0.00 | 29 | 1010.8 |
| 20260501202607 | 17 | 228 | 6.4 | 17.7 | 0.00 | 0.00 | 0.00 | 31 | 1010.6 |
| 20260501202103 | 16 | 158 | 8.0 | 22.5 | 0.00 | 0.00 | 0.00 | 29 | 1010.4 |
| 20260501201600 | 16 | 182 | 3.2 | 16.1 | 0.00 | 0.00 | 0.00 | 29 | 1010.8 |
| 20260501201056 | 16 | 193 | 11.3 | 24.1 | 0.00 | 0.00 | 0.00 | 28 | 1010.8 |
| 20260501200554 | 16 | 255 | 4.8 | 14.5 | 0.00 | 0.00 | 0.00 | 30 | 1011.0 |
| 20260501200051 | 16 | 166 | 6.4 | 14.5 | 0.00 | 0.00 | 0.00 | 29 | 1010.8 |
| 20260501195548 | 15 | 180 | 6.4 | 20.9 | 0.00 | 0.00 | 0.00 | 29 | 1011.0 |
| 20260501195044 | 16 | 199 | 11.3 | 27.4 | 0.00 | 0.00 | 0.00 | 29 | 1011.0 |
| 20260501194539 | 17 | 193 | 6.4 | 12.9 | 0.00 | 0.00 | 0.00 | 27 | 1011.0 |
| 20260501194035 | 17 | 168 | 3.2 | 9.7 | 0.00 | 0.00 | 0.00 | 28 | 1010.9 |
| 20260501193533 | 16 | 151 | 6.4 | 9.7 | 0.00 | 0.00 | 0.00 | 27 | 1011.2 |
| 20260501193032 | 16 | 192 | 11.3 | 22.5 | 0.00 | 0.00 | 0.00 | 27 | 1011.0 |
| 20260501192528 | 16 | 206 | 4.8 | 14.5 | 0.00 | 0.00 | 0.00 | 30 | 1011.1 |
| 20260501192026 | 16 | 188 | 12.9 | 17.7 | 0.00 | 0.00 | 0.00 | 27 | 1011.0 |
| 20260501191522 | 17 | 254 | 8.0 | 11.3 | 0.00 | 0.00 | 0.00 | 28 | 1010.9 |
| 20260501191020 | 16 | 126 | 3.2 | 6.4 | 0.00 | 0.00 | 0.00 | 27 | 1011.1 |
| 20260501190515 | 15 | 150 | 11.3 | 24.1 | 0.00 | 0.00 | 0.00 | 28 | 1011.2 |
| 20260501190012 | 17 | 211 | 8.0 | 14.5 | 0.00 | 0.00 | 0.00 | 28 | 1011.2 |
| 20260501185507 | 17 | 102 | 6.4 | 12.9 | 0.00 | 0.00 | 0.00 | 25 | 1010.9 |
| 20260501185003 | 17 | 125 | 11.3 | 17.7 | 0.00 | 0.00 | 0.00 | 25 | 1011.3 |
| 20260501184500 | 17 | 184 | 6.4 | 24.1 | 0.00 | 0.00 | 0.00 | 24 | 1011.2 |
| 20260501183954 | 16 | 175 | 4.8 | 14.5 | 0.00 | 0.00 | 0.00 | 26 | 1011.2 |
| 20260501183452 | 16 | 282 | 8.0 | 11.3 | 0.00 | 0.00 | 0.00 | 26 | 1011.3 |
| 20260501182948 | 16 | 218 | 6.4 | 9.7 | 0.00 | 0.00 | 0.00 | 28 | 1011.3 |
| 20260501182445 | 16 | 267 | 6.4 | 11.3 | 0.00 | 0.00 | 0.00 | 27 | 1011.3 |
| 20260501181941 | 15 | 184 | 9.7 | 14.5 | 0.00 | 0.00 | 0.00 | 29 | 1011.3 |
| 20260501181439 | 15 | 291 | 4.8 | 14.5 | 0.00 | 0.00 | 0.00 | 30 | 1011.2 |
| 20260501180936 | 16 | 198 | 3.2 | 9.7 | 0.00 | 0.00 | 0.00 | 30 | 1011.4 |
| 20260501180433 | 16 | 292 | 8.0 | 12.9 | 0.00 | 0.00 | 0.00 | 31 | 1011.4 |
| 20260501175929 | 16 | 226 | 6.4 | 14.5 | 0.00 | 0.00 | 0.00 | 29 | 1011.7 |
| 20260501175426 | 16 | 175 | 4.8 | 12.9 | 0.00 | 0.00 | 0.00 | 28 | 1011.7 |
| 20260501174923 | 16 | 250 | 4.8 | 9.7 | 0.00 | 0.00 | 0.00 | 27 | 1011.7 |
| 20260501174421 | 15 | 346 | 3.2 | 16.1 | 0.00 | 0.00 | 0.00 | 29 | 1011.7 |
| 20260501173918 | 15 | 233 | 3.2 | 6.4 | 0.00 | 0.00 | 0.00 | 26 | 1012.0 |
| 20260501173416 | 15 | 182 | 4.8 | 12.9 | 0.00 | 0.00 | 0.00 | 26 | 1011.7 |
| 20260501172911 | 15 | 174 | 12.9 | 20.9 | 0.00 | 0.00 | 0.00 | 26 | 1011.6 |
| 20260501172407 | 15 | 201 | 6.4 | 11.3 | 0.00 | 0.00 | 0.00 | 30 | 1012.0 |
| 20260501171902 | 15 | 215 | 3.2 | 9.7 | 0.00 | 0.00 | 0.00 | 33 | 1011.9 |
| 20260501171359 | 15 | 261 | 1.6 | 14.5 | 0.00 | 0.00 | 0.00 | 31 | 1012.3 |
| 20260501170855 | 14 | 235 | 1.6 | 11.3 | 0.00 | 0.00 | 0.00 | 33 | 1012.2 |
| 20260501170352 | 14 | 165 | 4.8 | 12.9 | 0.00 | 0.00 | 0.00 | 33 | 1012.4 |
| 20260501165850 | 15 | 225 | 8.0 | 12.9 | 0.00 | 0.00 | 0.00 | 33 | 1012.3 |
| 20260501165348 | 14 | 184 | 4.8 | 11.3 | 0.00 | 0.00 | 0.00 | 31 | 1012.2 |
| 20260501164845 | 13 | 293 | 9.7 | 16.1 | 0.00 | 0.00 | 0.00 | 32 | 1012.5 |
| 20260501164343 | 13 | 101 | 8.0 | 12.9 | 0.00 | 0.00 | 0.00 | 31 | 1012.5 |
| 20260501163838 | 13 | 185 | 3.2 | 4.8 | 0.00 | 0.00 | 0.00 | 33 | 1012.5 |
| 20260501163335 | 13 | 186 | 3.2 | 9.7 | 0.00 | 0.00 | 0.00 | 30 | 1012.3 |
| 20260501162832 | 14 | 169 | 1.6 | 6.4 | 0.00 | 0.00 | 0.00 | 31 | 1012.5 |
| 20260501162329 | 14 | 253 | 1.6 | 6.4 | 0.00 | 0.00 | 0.00 | 29 | 1012.6 |
| 20260501161826 | 15 | 43 | 6.4 | 9.7 | 0.00 | 0.00 | 0.00 | 29 | 1012.4 |
| 20260501161323 | 14 | 207 | 1.6 | 3.2 | 0.00 | 0.00 | 0.00 | 30 | 1012.7 |
| 20260501160819 | 13 | 178 | 6.4 | 6.4 | 0.00 | 0.00 | 0.00 | 32 | 1012.5 |
| 20260501160316 | 13 | 214 | 9.7 | 16.1 | 0.00 | 0.00 | 0.00 | 32 | 1012.7 |
| 20260501155814 | 13 | 91 | 4.8 | 6.4 | 0.00 | 0.00 | 0.00 | 32 | 1012.8 |
| 20260501155310 | 13 | 198 | 4.8 | 6.4 | 0.00 | 0.00 | 0.00 | 32 | 1012.6 |